sensor_id;sensor_type;location;lat;lon;timestamp;P1;durP1;ratioP1;P2;durP2;ratioP2
22270;SDS011;11304;53.520;10.104;2023-04-25T00:01:37;8.63;;;4.20;;
22270;SDS011;11304;53.520;10.104;2023-04-25T00:04:03;6.53;;;4.10;;
22270;SDS011;11304;53.520;10.104;2023-04-25T00:06:31;8.35;;;3.90;;
22270;SDS011;11304;53.520;10.104;2023-04-25T00:08:57;6.97;;;3.95;;
22270;SDS011;11304;53.520;10.104;2023-04-25T00:11:23;7.38;;;4.22;;
22270;SDS011;11304;53.520;10.104;2023-04-25T00:13:49;7.05;;;4.05;;
22270;SDS011;11304;53.520;10.104;2023-04-25T00:16:19;9.30;;;4.28;;
22270;SDS011;11304;53.520;10.104;2023-04-25T00:18:45;10.50;;;4.35;;
22270;SDS011;11304;53.520;10.104;2023-04-25T00:21:16;9.55;;;4.32;;
22270;SDS011;11304;53.520;10.104;2023-04-25T00:23:45;10.95;;;4.70;;
22270;SDS011;11304;53.520;10.104;2023-04-25T00:26:12;11.73;;;4.30;;
22270;SDS011;11304;53.520;10.104;2023-04-25T00:28:38;10.13;;;4.38;;
22270;SDS011;11304;53.520;10.104;2023-04-25T00:31:05;13.18;;;4.50;;
22270;SDS011;11304;53.520;10.104;2023-04-25T00:33:31;21.45;;;4.80;;
22270;SDS011;11304;53.520;10.104;2023-04-25T00:35:56;12.90;;;4.38;;
22270;SDS011;11304;53.520;10.104;2023-04-25T00:38:22;18.58;;;5.05;;
22270;SDS011;11304;53.520;10.104;2023-04-25T00:40:48;20.60;;;4.88;;
22270;SDS011;11304;53.520;10.104;2023-04-25T00:43:14;15.80;;;4.82;;
22270;SDS011;11304;53.520;10.104;2023-04-25T00:45:40;29.38;;;5.18;;
22270;SDS011;11304;53.520;10.104;2023-04-25T00:48:07;24.52;;;5.00;;
22270;SDS011;11304;53.520;10.104;2023-04-25T00:50:34;25.38;;;4.57;;
22270;SDS011;11304;53.520;10.104;2023-04-25T00:53:01;29.60;;;5.28;;
22270;SDS011;11304;53.520;10.104;2023-04-25T00:55:28;25.23;;;4.50;;
22270;SDS011;11304;53.520;10.104;2023-04-25T00:57:56;28.67;;;5.03;;
22270;SDS011;11304;53.520;10.104;2023-04-25T01:00:22;28.20;;;4.20;;
22270;SDS011;11304;53.520;10.104;2023-04-25T01:02:48;34.97;;;5.78;;
22270;SDS011;11304;53.520;10.104;2023-04-25T01:05:14;35.42;;;4.80;;
22270;SDS011;11304;53.520;10.104;2023-04-25T01:07:40;22.45;;;4.40;;
22270;SDS011;11304;53.520;10.104;2023-04-25T01:10:06;37.78;;;5.38;;
22270;SDS011;11304;53.520;10.104;2023-04-25T01:12:33;23.38;;;4.60;;
22270;SDS011;11304;53.520;10.104;2023-04-25T01:15:00;20.80;;;5.15;;
22270;SDS011;11304;53.520;10.104;2023-04-25T01:17:26;22.88;;;4.20;;
22270;SDS011;11304;53.520;10.104;2023-04-25T01:19:52;34.47;;;6.93;;
22270;SDS011;11304;53.520;10.104;2023-04-25T01:22:18;20.88;;;6.00;;
22270;SDS011;11304;53.520;10.104;2023-04-25T01:24:44;27.85;;;4.95;;
22270;SDS011;11304;53.520;10.104;2023-04-25T01:27:10;22.52;;;5.03;;
22270;SDS011;11304;53.520;10.104;2023-04-25T01:29:36;22.42;;;4.35;;
22270;SDS011;11304;53.520;10.104;2023-04-25T01:32:02;25.00;;;5.13;;
22270;SDS011;11304;53.520;10.104;2023-04-25T01:34:30;25.75;;;5.40;;
22270;SDS011;11304;53.520;10.104;2023-04-25T01:36:55;30.08;;;5.82;;
22270;SDS011;11304;53.520;10.104;2023-04-25T01:39:21;29.77;;;5.82;;
22270;SDS011;11304;53.520;10.104;2023-04-25T01:41:47;28.92;;;6.05;;
22270;SDS011;11304;53.520;10.104;2023-04-25T01:44:13;30.98;;;6.00;;
22270;SDS011;11304;53.520;10.104;2023-04-25T01:46:39;30.23;;;5.68;;
22270;SDS011;11304;53.520;10.104;2023-04-25T01:49:05;31.20;;;5.13;;
22270;SDS011;11304;53.520;10.104;2023-04-25T01:51:31;27.40;;;6.00;;
22270;SDS011;11304;53.520;10.104;2023-04-25T01:53:57;32.15;;;6.47;;
22270;SDS011;11304;53.520;10.104;2023-04-25T01:56:23;31.85;;;6.03;;
22270;SDS011;11304;53.520;10.104;2023-04-25T01:58:49;26.13;;;5.57;;
22270;SDS011;11304;53.520;10.104;2023-04-25T02:01:16;32.67;;;5.10;;
22270;SDS011;11304;53.520;10.104;2023-04-25T02:03:42;28.77;;;5.78;;
22270;SDS011;11304;53.520;10.104;2023-04-25T02:06:08;22.77;;;5.18;;
22270;SDS011;11304;53.520;10.104;2023-04-25T02:08:34;31.42;;;5.38;;
22270;SDS011;11304;53.520;10.104;2023-04-25T02:11:02;38.80;;;6.13;;
22270;SDS011;11304;53.520;10.104;2023-04-25T02:13:28;31.75;;;5.40;;
22270;SDS011;11304;53.520;10.104;2023-04-25T02:15:54;31.55;;;6.38;;
22270;SDS011;11304;53.520;10.104;2023-04-25T02:18:19;32.75;;;5.35;;
22270;SDS011;11304;53.520;10.104;2023-04-25T02:20:46;25.42;;;5.22;;
22270;SDS011;11304;53.520;10.104;2023-04-25T02:23:11;32.22;;;6.30;;
22270;SDS011;11304;53.520;10.104;2023-04-25T02:25:37;28.33;;;5.93;;
22270;SDS011;11304;53.520;10.104;2023-04-25T02:28:03;28.67;;;5.78;;
22270;SDS011;11304;53.520;10.104;2023-04-25T02:30:29;31.65;;;5.68;;
22270;SDS011;11304;53.520;10.104;2023-04-25T02:32:55;29.60;;;5.47;;
22270;SDS011;11304;53.520;10.104;2023-04-25T02:35:21;31.58;;;5.22;;
22270;SDS011;11304;53.520;10.104;2023-04-25T02:37:47;18.95;;;4.93;;
22270;SDS011;11304;53.520;10.104;2023-04-25T02:40:12;29.38;;;5.05;;
22270;SDS011;11304;53.520;10.104;2023-04-25T02:42:38;33.95;;;5.50;;
22270;SDS011;11304;53.520;10.104;2023-04-25T02:45:04;22.73;;;5.45;;
22270;SDS011;11304;53.520;10.104;2023-04-25T02:47:30;24.70;;;4.68;;
22270;SDS011;11304;53.520;10.104;2023-04-25T02:49:56;32.60;;;6.03;;
22270;SDS011;11304;53.520;10.104;2023-04-25T02:52:22;22.40;;;4.57;;
22270;SDS011;11304;53.520;10.104;2023-04-25T02:54:47;26.50;;;5.05;;
22270;SDS011;11304;53.520;10.104;2023-04-25T02:57:13;24.27;;;5.93;;
22270;SDS011;11304;53.520;10.104;2023-04-25T02:59:39;25.85;;;4.93;;
22270;SDS011;11304;53.520;10.104;2023-04-25T03:02:05;28.38;;;4.38;;
22270;SDS011;11304;53.520;10.104;2023-04-25T03:04:31;26.98;;;4.75;;
22270;SDS011;11304;53.520;10.104;2023-04-25T03:06:58;33.75;;;5.50;;
22270;SDS011;11304;53.520;10.104;2023-04-25T03:09:24;26.77;;;4.90;;
22270;SDS011;11304;53.520;10.104;2023-04-25T03:11:50;30.67;;;4.93;;
22270;SDS011;11304;53.520;10.104;2023-04-25T03:14:15;26.95;;;5.00;;
22270;SDS011;11304;53.520;10.104;2023-04-25T03:16:41;16.08;;;4.13;;
22270;SDS011;11304;53.520;10.104;2023-04-25T03:19:07;18.55;;;4.38;;
22270;SDS011;11304;53.520;10.104;2023-04-25T03:21:33;20.65;;;4.63;;
22270;SDS011;11304;53.520;10.104;2023-04-25T03:24:00;23.80;;;4.28;;
22270;SDS011;11304;53.520;10.104;2023-04-25T03:26:27;25.65;;;4.25;;
22270;SDS011;11304;53.520;10.104;2023-04-25T03:28:53;25.70;;;4.05;;
22270;SDS011;11304;53.520;10.104;2023-04-25T03:31:19;24.90;;;4.47;;
22270;SDS011;11304;53.520;10.104;2023-04-25T03:33:45;25.80;;;4.45;;
22270;SDS011;11304;53.520;10.104;2023-04-25T03:36:11;24.95;;;4.40;;
22270;SDS011;11304;53.520;10.104;2023-04-25T03:38:36;21.75;;;4.28;;
22270;SDS011;11304;53.520;10.104;2023-04-25T03:41:02;28.20;;;4.40;;
22270;SDS011;11304;53.520;10.104;2023-04-25T03:43:28;24.25;;;4.78;;
22270;SDS011;11304;53.520;10.104;2023-04-25T03:45:53;23.38;;;4.22;;
22270;SDS011;11304;53.520;10.104;2023-04-25T03:48:19;23.30;;;4.88;;
22270;SDS011;11304;53.520;10.104;2023-04-25T03:50:49;27.02;;;4.22;;
22270;SDS011;11304;53.520;10.104;2023-04-25T03:53:15;28.15;;;5.00;;
22270;SDS011;11304;53.520;10.104;2023-04-25T03:55:41;18.65;;;3.97;;
22270;SDS011;11304;53.520;10.104;2023-04-25T03:58:07;24.63;;;4.40;;
22270;SDS011;11304;53.520;10.104;2023-04-25T04:00:33;20.80;;;4.25;;
22270;SDS011;11304;53.520;10.104;2023-04-25T04:02:59;18.63;;;3.78;;
22270;SDS011;11304;53.520;10.104;2023-04-25T04:05:25;26.33;;;4.82;;
22270;SDS011;11304;53.520;10.104;2023-04-25T04:07:52;24.38;;;4.18;;
22270;SDS011;11304;53.520;10.104;2023-04-25T04:10:18;19.20;;;4.15;;
22270;SDS011;11304;53.520;10.104;2023-04-25T04:12:44;17.20;;;4.22;;
22270;SDS011;11304;53.520;10.104;2023-04-25T04:15:10;20.73;;;3.95;;
22270;SDS011;11304;53.520;10.104;2023-04-25T04:17:36;23.60;;;4.20;;
22270;SDS011;11304;53.520;10.104;2023-04-25T04:20:01;29.50;;;4.00;;
22270;SDS011;11304;53.520;10.104;2023-04-25T04:22:28;19.98;;;4.35;;
22270;SDS011;11304;53.520;10.104;2023-04-25T04:24:54;15.98;;;3.83;;
22270;SDS011;11304;53.520;10.104;2023-04-25T04:27:21;19.27;;;4.28;;
22270;SDS011;11304;53.520;10.104;2023-04-25T04:29:47;16.58;;;4.13;;
22270;SDS011;11304;53.520;10.104;2023-04-25T04:32:14;17.65;;;4.00;;
22270;SDS011;11304;53.520;10.104;2023-04-25T04:34:40;23.27;;;4.78;;
22270;SDS011;11304;53.520;10.104;2023-04-25T04:37:06;22.67;;;4.35;;
22270;SDS011;11304;53.520;10.104;2023-04-25T04:39:35;27.33;;;4.18;;
22270;SDS011;11304;53.520;10.104;2023-04-25T04:42:02;20.55;;;4.25;;
22270;SDS011;11304;53.520;10.104;2023-04-25T04:44:29;22.25;;;4.05;;
22270;SDS011;11304;53.520;10.104;2023-04-25T04:46:58;22.98;;;4.07;;
22270;SDS011;11304;53.520;10.104;2023-04-25T04:49:24;19.58;;;4.60;;
22270;SDS011;11304;53.520;10.104;2023-04-25T04:51:49;20.15;;;4.18;;
22270;SDS011;11304;53.520;10.104;2023-04-25T04:54:15;27.27;;;4.60;;
22270;SDS011;11304;53.520;10.104;2023-04-25T04:56:41;18.15;;;4.25;;
22270;SDS011;11304;53.520;10.104;2023-04-25T04:59:07;22.95;;;4.18;;
22270;SDS011;11304;53.520;10.104;2023-04-25T05:01:33;21.52;;;3.95;;
22270;SDS011;11304;53.520;10.104;2023-04-25T05:04:00;24.77;;;4.10;;
22270;SDS011;11304;53.520;10.104;2023-04-25T05:06:27;19.90;;;4.40;;
22270;SDS011;11304;53.520;10.104;2023-04-25T05:08:54;21.65;;;4.72;;
22270;SDS011;11304;53.520;10.104;2023-04-25T05:11:20;20.75;;;4.80;;
22270;SDS011;11304;53.520;10.104;2023-04-25T05:13:47;25.95;;;4.90;;
22270;SDS011;11304;53.520;10.104;2023-04-25T05:16:13;20.27;;;4.53;;
22270;SDS011;11304;53.520;10.104;2023-04-25T05:18:39;16.30;;;3.80;;
22270;SDS011;11304;53.520;10.104;2023-04-25T05:21:05;26.88;;;4.40;;
22270;SDS011;11304;53.520;10.104;2023-04-25T05:23:31;21.63;;;4.35;;
22270;SDS011;11304;53.520;10.104;2023-04-25T05:25:57;19.85;;;4.18;;
22270;SDS011;11304;53.520;10.104;2023-04-25T05:28:23;20.67;;;3.50;;
22270;SDS011;11304;53.520;10.104;2023-04-25T05:30:49;23.75;;;4.45;;
22270;SDS011;11304;53.520;10.104;2023-04-25T05:33:15;23.85;;;3.85;;
22270;SDS011;11304;53.520;10.104;2023-04-25T05:35:41;22.50;;;4.45;;
22270;SDS011;11304;53.520;10.104;2023-04-25T05:38:07;15.02;;;3.67;;
22270;SDS011;11304;53.520;10.104;2023-04-25T05:40:33;21.20;;;4.20;;
22270;SDS011;11304;53.520;10.104;2023-04-25T05:42:59;16.50;;;4.28;;
22270;SDS011;11304;53.520;10.104;2023-04-25T05:45:25;21.13;;;3.60;;
22270;SDS011;11304;53.520;10.104;2023-04-25T05:47:50;21.88;;;4.95;;
22270;SDS011;11304;53.520;10.104;2023-04-25T05:50:16;21.88;;;4.00;;
22270;SDS011;11304;53.520;10.104;2023-04-25T05:52:42;26.00;;;4.70;;
22270;SDS011;11304;53.520;10.104;2023-04-25T05:55:08;22.35;;;3.88;;
22270;SDS011;11304;53.520;10.104;2023-04-25T05:57:34;31.10;;;4.57;;
22270;SDS011;11304;53.520;10.104;2023-04-25T06:00:00;18.58;;;3.65;;
22270;SDS011;11304;53.520;10.104;2023-04-25T06:02:26;21.15;;;4.13;;
22270;SDS011;11304;53.520;10.104;2023-04-25T06:04:52;19.35;;;4.05;;
22270;SDS011;11304;53.520;10.104;2023-04-25T06:07:21;23.20;;;4.90;;
22270;SDS011;11304;53.520;10.104;2023-04-25T06:09:47;27.35;;;4.38;;
22270;SDS011;11304;53.520;10.104;2023-04-25T06:12:12;25.25;;;4.85;;
22270;SDS011;11304;53.520;10.104;2023-04-25T06:14:38;20.58;;;3.78;;
22270;SDS011;11304;53.520;10.104;2023-04-25T06:17:04;29.20;;;4.38;;
22270;SDS011;11304;53.520;10.104;2023-04-25T06:19:33;18.52;;;3.97;;
22270;SDS011;11304;53.520;10.104;2023-04-25T06:22:00;20.10;;;3.83;;
22270;SDS011;11304;53.520;10.104;2023-04-25T06:24:26;15.77;;;3.40;;
22270;SDS011;11304;53.520;10.104;2023-04-25T06:26:52;16.55;;;3.80;;
22270;SDS011;11304;53.520;10.104;2023-04-25T06:29:18;14.40;;;3.53;;
22270;SDS011;11304;53.520;10.104;2023-04-25T06:31:44;15.68;;;3.50;;
22270;SDS011;11304;53.520;10.104;2023-04-25T06:34:10;21.05;;;4.05;;
22270;SDS011;11304;53.520;10.104;2023-04-25T06:36:35;20.13;;;3.75;;
22270;SDS011;11304;53.520;10.104;2023-04-25T06:39:01;26.60;;;4.57;;
22270;SDS011;11304;53.520;10.104;2023-04-25T06:41:27;20.42;;;3.83;;
22270;SDS011;11304;53.520;10.104;2023-04-25T06:43:52;20.73;;;3.47;;
22270;SDS011;11304;53.520;10.104;2023-04-25T06:46:18;16.38;;;3.55;;
22270;SDS011;11304;53.520;10.104;2023-04-25T06:48:44;19.05;;;3.30;;
22270;SDS011;11304;53.520;10.104;2023-04-25T06:51:10;15.10;;;2.95;;
22270;SDS011;11304;53.520;10.104;2023-04-25T06:53:38;18.70;;;3.50;;
22270;SDS011;11304;53.520;10.104;2023-04-25T06:56:04;14.85;;;3.55;;
22270;SDS011;11304;53.520;10.104;2023-04-25T06:58:30;19.23;;;3.55;;
22270;SDS011;11304;53.520;10.104;2023-04-25T07:00:56;17.95;;;3.40;;
22270;SDS011;11304;53.520;10.104;2023-04-25T07:03:21;21.48;;;3.90;;
22270;SDS011;11304;53.520;10.104;2023-04-25T07:05:47;17.13;;;3.63;;
22270;SDS011;11304;53.520;10.104;2023-04-25T07:08:13;21.05;;;3.88;;
22270;SDS011;11304;53.520;10.104;2023-04-25T07:10:38;14.35;;;2.60;;
22270;SDS011;11304;53.520;10.104;2023-04-25T07:13:05;20.77;;;3.35;;
22270;SDS011;11304;53.520;10.104;2023-04-25T07:15:30;15.48;;;3.17;;
22270;SDS011;11304;53.520;10.104;2023-04-25T07:17:56;23.55;;;3.30;;
22270;SDS011;11304;53.520;10.104;2023-04-25T07:20:22;23.42;;;3.47;;
22270;SDS011;11304;53.520;10.104;2023-04-25T07:22:47;16.42;;;3.50;;
22270;SDS011;11304;53.520;10.104;2023-04-25T07:25:14;18.55;;;3.40;;
22270;SDS011;11304;53.520;10.104;2023-04-25T07:27:41;15.25;;;3.30;;
22270;SDS011;11304;53.520;10.104;2023-04-25T07:30:07;17.95;;;3.15;;
22270;SDS011;11304;53.520;10.104;2023-04-25T07:32:33;12.88;;;3.38;;
22270;SDS011;11304;53.520;10.104;2023-04-25T07:34:58;15.50;;;3.78;;
22270;SDS011;11304;53.520;10.104;2023-04-25T07:37:24;19.85;;;3.42;;
22270;SDS011;11304;53.520;10.104;2023-04-25T07:39:51;18.63;;;3.40;;
22270;SDS011;11304;53.520;10.104;2023-04-25T07:42:16;16.63;;;3.58;;
22270;SDS011;11304;53.520;10.104;2023-04-25T07:44:42;12.30;;;3.05;;
22270;SDS011;11304;53.520;10.104;2023-04-25T07:47:08;14.00;;;3.03;;
22270;SDS011;11304;53.520;10.104;2023-04-25T07:49:35;14.80;;;2.80;;
22270;SDS011;11304;53.520;10.104;2023-04-25T07:52:02;17.45;;;3.05;;
22270;SDS011;11304;53.520;10.104;2023-04-25T07:54:29;18.80;;;3.10;;
22270;SDS011;11304;53.520;10.104;2023-04-25T07:56:55;14.13;;;2.88;;
22270;SDS011;11304;53.520;10.104;2023-04-25T07:59:21;10.32;;;2.17;;
22270;SDS011;11304;53.520;10.104;2023-04-25T08:01:47;12.45;;;2.53;;
22270;SDS011;11304;53.520;10.104;2023-04-25T08:04:13;14.57;;;3.25;;
22270;SDS011;11304;53.520;10.104;2023-04-25T08:06:39;16.15;;;2.70;;
22270;SDS011;11304;53.520;10.104;2023-04-25T08:09:05;16.02;;;3.38;;
22270;SDS011;11304;53.520;10.104;2023-04-25T08:11:32;12.65;;;2.83;;
22270;SDS011;11304;53.520;10.104;2023-04-25T08:13:58;11.38;;;3.05;;
22270;SDS011;11304;53.520;10.104;2023-04-25T08:16:24;20.60;;;3.67;;
22270;SDS011;11304;53.520;10.104;2023-04-25T08:18:50;13.90;;;2.35;;
22270;SDS011;11304;53.520;10.104;2023-04-25T08:21:15;10.88;;;2.75;;
22270;SDS011;11304;53.520;10.104;2023-04-25T08:23:41;14.90;;;2.22;;
22270;SDS011;11304;53.520;10.104;2023-04-25T08:26:07;16.75;;;2.45;;
22270;SDS011;11304;53.520;10.104;2023-04-25T08:28:33;18.83;;;3.28;;
22270;SDS011;11304;53.520;10.104;2023-04-25T08:30:59;11.18;;;2.40;;
22270;SDS011;11304;53.520;10.104;2023-04-25T08:33:25;16.88;;;2.45;;
22270;SDS011;11304;53.520;10.104;2023-04-25T08:35:51;16.35;;;2.95;;
22270;SDS011;11304;53.520;10.104;2023-04-25T08:38:17;16.98;;;2.58;;
22270;SDS011;11304;53.520;10.104;2023-04-25T08:40:43;12.45;;;2.22;;
22270;SDS011;11304;53.520;10.104;2023-04-25T08:43:09;16.20;;;2.83;;
22270;SDS011;11304;53.520;10.104;2023-04-25T08:45:38;14.20;;;2.88;;
22270;SDS011;11304;53.520;10.104;2023-04-25T08:48:11;12.80;;;2.53;;
22270;SDS011;11304;53.520;10.104;2023-04-25T08:50:56;13.00;;;2.85;;
22270;SDS011;11304;53.520;10.104;2023-04-25T08:53:25;11.55;;;2.00;;
22270;SDS011;11304;53.520;10.104;2023-04-25T08:55:57;8.95;;;2.75;;
22270;SDS011;11304;53.520;10.104;2023-04-25T08:58:24;9.57;;;2.60;;
22270;SDS011;11304;53.520;10.104;2023-04-25T09:00:50;9.48;;;2.15;;
22270;SDS011;11304;53.520;10.104;2023-04-25T09:03:17;11.70;;;2.40;;
22270;SDS011;11304;53.520;10.104;2023-04-25T09:05:43;9.82;;;2.30;;
22270;SDS011;11304;53.520;10.104;2023-04-25T09:08:08;11.68;;;2.50;;
22270;SDS011;11304;53.520;10.104;2023-04-25T09:10:34;11.30;;;2.20;;
22270;SDS011;11304;53.520;10.104;2023-04-25T09:13:07;10.63;;;2.40;;
22270;SDS011;11304;53.520;10.104;2023-04-25T09:15:46;8.02;;;2.20;;
22270;SDS011;11304;53.520;10.104;2023-04-25T09:18:26;10.88;;;2.00;;
22270;SDS011;11304;53.520;10.104;2023-04-25T09:20:55;8.85;;;2.25;;
22270;SDS011;11304;53.520;10.104;2023-04-25T09:23:23;10.02;;;1.83;;
22270;SDS011;11304;53.520;10.104;2023-04-25T09:25:50;9.20;;;1.88;;
22270;SDS011;11304;53.520;10.104;2023-04-25T09:28:22;11.32;;;1.55;;
22270;SDS011;11304;53.520;10.104;2023-04-25T09:30:53;10.13;;;1.83;;
22270;SDS011;11304;53.520;10.104;2023-04-25T09:33:23;10.10;;;1.58;;
22270;SDS011;11304;53.520;10.104;2023-04-25T09:36:03;7.78;;;1.83;;
22270;SDS011;11304;53.520;10.104;2023-04-25T09:38:42;12.50;;;2.33;;
22270;SDS011;11304;53.520;10.104;2023-04-25T09:41:09;13.18;;;2.28;;
22270;SDS011;11304;53.520;10.104;2023-04-25T09:43:36;12.40;;;2.00;;
22270;SDS011;11304;53.520;10.104;2023-04-25T09:46:02;19.02;;;2.75;;
22270;SDS011;11304;53.520;10.104;2023-04-25T09:48:32;11.90;;;2.03;;
22270;SDS011;11304;53.520;10.104;2023-04-25T09:53:34;13.10;;;1.60;;
22270;SDS011;11304;53.520;10.104;2023-04-25T09:56:05;11.00;;;1.95;;
22270;SDS011;11304;53.520;10.104;2023-04-25T09:58:32;9.85;;;1.95;;
22270;SDS011;11304;53.520;10.104;2023-04-25T10:01:00;14.38;;;2.90;;
22270;SDS011;11304;53.520;10.104;2023-04-25T10:03:29;9.52;;;2.05;;
22270;SDS011;11304;53.520;10.104;2023-04-25T10:05:57;6.03;;;1.80;;
22270;SDS011;11304;53.520;10.104;2023-04-25T10:08:27;8.88;;;1.83;;
22270;SDS011;11304;53.520;10.104;2023-04-25T10:10:58;6.35;;;1.45;;
22270;SDS011;11304;53.520;10.104;2023-04-25T10:13:25;10.13;;;1.83;;
22270;SDS011;11304;53.520;10.104;2023-04-25T10:15:53;8.07;;;1.88;;
22270;SDS011;11304;53.520;10.104;2023-04-25T10:18:19;7.95;;;2.08;;
22270;SDS011;11304;53.520;10.104;2023-04-25T10:20:46;8.48;;;1.92;;
22270;SDS011;11304;53.520;10.104;2023-04-25T10:23:14;9.85;;;1.83;;
22270;SDS011;11304;53.520;10.104;2023-04-25T10:25:42;10.65;;;2.75;;
22270;SDS011;11304;53.520;10.104;2023-04-25T10:28:08;14.32;;;2.33;;
22270;SDS011;11304;53.520;10.104;2023-04-25T10:30:34;10.93;;;1.80;;
22270;SDS011;11304;53.520;10.104;2023-04-25T10:32:59;9.32;;;1.75;;
22270;SDS011;11304;53.520;10.104;2023-04-25T10:35:29;8.85;;;1.80;;
22270;SDS011;11304;53.520;10.104;2023-04-25T10:40:27;8.45;;;1.70;;
22270;SDS011;11304;53.520;10.104;2023-04-25T10:42:53;12.30;;;2.13;;
22270;SDS011;11304;53.520;10.104;2023-04-25T10:45:20;11.30;;;2.10;;
22270;SDS011;11304;53.520;10.104;2023-04-25T10:47:46;7.95;;;1.70;;
22270;SDS011;11304;53.520;10.104;2023-04-25T10:50:14;5.65;;;1.50;;
22270;SDS011;11304;53.520;10.104;2023-04-25T10:52:41;9.00;;;1.83;;
22270;SDS011;11304;53.520;10.104;2023-04-25T10:55:07;7.45;;;1.83;;
22270;SDS011;11304;53.520;10.104;2023-04-25T10:57:42;11.15;;;1.98;;
22270;SDS011;11304;53.520;10.104;2023-04-25T11:00:18;16.27;;;2.38;;
22270;SDS011;11304;53.520;10.104;2023-04-25T11:02:51;10.75;;;1.83;;
22270;SDS011;11304;53.520;10.104;2023-04-25T11:07:54;10.00;;;2.08;;
22270;SDS011;11304;53.520;10.104;2023-04-25T11:10:26;12.27;;;1.70;;
22270;SDS011;11304;53.520;10.104;2023-04-25T11:12:52;16.30;;;2.13;;
22270;SDS011;11304;53.520;10.104;2023-04-25T11:15:18;18.83;;;2.13;;
22270;SDS011;11304;53.520;10.104;2023-04-25T11:17:44;13.90;;;2.05;;
22270;SDS011;11304;53.520;10.104;2023-04-25T11:20:11;12.38;;;2.22;;
22270;SDS011;11304;53.520;10.104;2023-04-25T11:22:39;13.32;;;2.65;;
22270;SDS011;11304;53.520;10.104;2023-04-25T11:25:08;10.98;;;2.20;;
22270;SDS011;11304;53.520;10.104;2023-04-25T11:27:49;9.98;;;1.95;;
22270;SDS011;11304;53.520;10.104;2023-04-25T11:30:19;6.43;;;1.80;;
22270;SDS011;11304;53.520;10.104;2023-04-25T11:32:46;9.30;;;1.73;;
22270;SDS011;11304;53.520;10.104;2023-04-25T11:35:12;9.60;;;1.80;;
22270;SDS011;11304;53.520;10.104;2023-04-25T11:37:38;14.23;;;2.25;;
22270;SDS011;11304;53.520;10.104;2023-04-25T11:40:05;10.18;;;1.85;;
22270;SDS011;11304;53.520;10.104;2023-04-25T11:42:33;10.15;;;2.03;;
22270;SDS011;11304;53.520;10.104;2023-04-25T11:44:59;10.30;;;2.03;;
22270;SDS011;11304;53.520;10.104;2023-04-25T11:47:29;10.70;;;2.15;;
22270;SDS011;11304;53.520;10.104;2023-04-25T11:49:55;5.75;;;1.20;;
22270;SDS011;11304;53.520;10.104;2023-04-25T11:52:22;11.00;;;1.70;;
22270;SDS011;11304;53.520;10.104;2023-04-25T11:54:48;3.10;;;0.93;;
22270;SDS011;11304;53.520;10.104;2023-04-25T11:57:13;4.78;;;1.00;;
22270;SDS011;11304;53.520;10.104;2023-04-25T11:59:39;5.38;;;1.10;;
22270;SDS011;11304;53.520;10.104;2023-04-25T12:02:05;6.57;;;1.30;;
22270;SDS011;11304;53.520;10.104;2023-04-25T12:04:32;7.20;;;1.45;;
22270;SDS011;11304;53.520;10.104;2023-04-25T12:06:57;14.95;;;1.75;;
22270;SDS011;11304;53.520;10.104;2023-04-25T12:09:29;5.97;;;1.00;;
22270;SDS011;11304;53.520;10.104;2023-04-25T12:11:57;10.88;;;1.50;;
22270;SDS011;11304;53.520;10.104;2023-04-25T12:14:24;8.57;;;1.63;;
22270;SDS011;11304;53.520;10.104;2023-04-25T12:16:52;10.63;;;1.80;;
22270;SDS011;11304;53.520;10.104;2023-04-25T12:21:46;9.82;;;1.55;;
22270;SDS011;11304;53.520;10.104;2023-04-25T12:24:14;11.52;;;1.92;;
22270;SDS011;11304;53.520;10.104;2023-04-25T12:29:18;8.48;;;1.70;;
22270;SDS011;11304;53.520;10.104;2023-04-25T12:31:45;5.72;;;1.63;;
22270;SDS011;11304;53.520;10.104;2023-04-25T12:34:11;5.88;;;1.50;;
22270;SDS011;11304;53.520;10.104;2023-04-25T12:36:37;4.68;;;1.35;;
22270;SDS011;11304;53.520;10.104;2023-04-25T12:39:03;6.45;;;1.30;;
22270;SDS011;11304;53.520;10.104;2023-04-25T12:41:30;4.25;;;1.20;;
22270;SDS011;11304;53.520;10.104;2023-04-25T12:43:55;7.13;;;1.00;;
22270;SDS011;11304;53.520;10.104;2023-04-25T12:46:21;8.45;;;1.33;;
22270;SDS011;11304;53.520;10.104;2023-04-25T12:48:50;11.52;;;1.65;;
22270;SDS011;11304;53.520;10.104;2023-04-25T12:51:16;11.68;;;1.52;;
22270;SDS011;11304;53.520;10.104;2023-04-25T12:53:41;9.32;;;1.67;;
22270;SDS011;11304;53.520;10.104;2023-04-25T12:56:07;13.85;;;1.85;;
22270;SDS011;11304;53.520;10.104;2023-04-25T12:58:33;7.05;;;1.55;;
22270;SDS011;11304;53.520;10.104;2023-04-25T13:00:59;7.95;;;1.70;;
22270;SDS011;11304;53.520;10.104;2023-04-25T13:03:25;5.30;;;1.38;;
22270;SDS011;11304;53.520;10.104;2023-04-25T13:05:51;13.10;;;2.20;;
22270;SDS011;11304;53.520;10.104;2023-04-25T13:08:20;15.00;;;2.25;;
22270;SDS011;11304;53.520;10.104;2023-04-25T13:10:47;13.57;;;2.30;;
22270;SDS011;11304;53.520;10.104;2023-04-25T13:13:13;13.45;;;2.45;;
22270;SDS011;11304;53.520;10.104;2023-04-25T13:15:38;20.25;;;2.45;;
22270;SDS011;11304;53.520;10.104;2023-04-25T13:18:04;7.82;;;1.60;;
22270;SDS011;11304;53.520;10.104;2023-04-25T13:20:32;8.52;;;2.10;;
22270;SDS011;11304;53.520;10.104;2023-04-25T13:22:58;12.43;;;2.13;;
22270;SDS011;11304;53.520;10.104;2023-04-25T13:25:24;6.47;;;1.55;;
22270;SDS011;11304;53.520;10.104;2023-04-25T13:27:50;10.65;;;1.58;;
22270;SDS011;11304;53.520;10.104;2023-04-25T13:30:16;24.67;;;2.15;;
22270;SDS011;11304;53.520;10.104;2023-04-25T13:32:42;8.02;;;1.20;;
22270;SDS011;11304;53.520;10.104;2023-04-25T13:35:09;12.20;;;1.75;;
22270;SDS011;11304;53.520;10.104;2023-04-25T13:37:37;7.15;;;1.50;;
22270;SDS011;11304;53.520;10.104;2023-04-25T13:40:05;5.95;;;1.52;;
22270;SDS011;11304;53.520;10.104;2023-04-25T13:42:34;10.60;;;2.08;;
22270;SDS011;11304;53.520;10.104;2023-04-25T13:45:00;12.07;;;2.13;;
22270;SDS011;11304;53.520;10.104;2023-04-25T13:47:26;8.50;;;2.08;;
22270;SDS011;11304;53.520;10.104;2023-04-25T13:49:52;14.68;;;2.42;;
22270;SDS011;11304;53.520;10.104;2023-04-25T13:52:18;8.65;;;2.20;;
22270;SDS011;11304;53.520;10.104;2023-04-25T13:54:44;11.52;;;2.40;;
22270;SDS011;11304;53.520;10.104;2023-04-25T13:57:10;8.95;;;2.25;;
22270;SDS011;11304;53.520;10.104;2023-04-25T13:59:36;11.90;;;2.17;;
22270;SDS011;11304;53.520;10.104;2023-04-25T14:02:02;8.40;;;1.70;;
22270;SDS011;11304;53.520;10.104;2023-04-25T14:04:28;9.35;;;1.60;;
22270;SDS011;11304;53.520;10.104;2023-04-25T14:06:54;10.38;;;1.70;;
22270;SDS011;11304;53.520;10.104;2023-04-25T14:09:21;2.95;;;1.25;;
22270;SDS011;11304;53.520;10.104;2023-04-25T14:11:50;5.30;;;1.40;;
22270;SDS011;11304;53.520;10.104;2023-04-25T14:14:17;10.82;;;1.90;;
22270;SDS011;11304;53.520;10.104;2023-04-25T14:16:44;6.32;;;2.00;;
22270;SDS011;11304;53.520;10.104;2023-04-25T14:19:10;9.77;;;1.77;;
22270;SDS011;11304;53.520;10.104;2023-04-25T14:21:36;8.73;;;1.88;;
22270;SDS011;11304;53.520;10.104;2023-04-25T14:24:02;13.00;;;2.05;;
22270;SDS011;11304;53.520;10.104;2023-04-25T14:26:28;14.30;;;2.28;;
22270;SDS011;11304;53.520;10.104;2023-04-25T14:28:53;14.23;;;2.20;;
22270;SDS011;11304;53.520;10.104;2023-04-25T14:31:21;11.93;;;2.83;;
22270;SDS011;11304;53.520;10.104;2023-04-25T14:33:47;10.60;;;2.50;;